createdAt,value
2018-02-18T00:00:01.895Z,78.10
2018-02-18T00:02:30.151Z,77.90
2018-02-18T00:04:59.447Z,78.40
2018-02-18T00:07:28.809Z,78.40
2018-02-18T00:09:57.456Z,79.00
2018-02-18T00:12:25.750Z,79.80
2018-02-18T00:14:59.735Z,80.20
2018-02-18T00:17:28.107Z,80.30
2018-02-18T00:19:56.427Z,79.60
2018-02-18T00:22:24.914Z,78.60
2018-02-18T00:24:53.276Z,77.50
2018-02-18T00:27:21.659Z,76.60
2018-02-18T00:29:50.059Z,76.40
2018-02-18T00:32:18.555Z,77.60
2018-02-18T00:34:46.871Z,77.40
2018-02-18T00:37:15.162Z,78.00
2018-02-18T00:39:43.480Z,77.80
2018-02-18T00:42:11.800Z,78.90
2018-02-18T00:44:40.864Z,79.00
2018-02-18T00:47:09.182Z,79.00
2018-02-18T00:49:37.804Z,78.50
2018-02-18T00:52:06.270Z,79.10
2018-02-18T00:54:35.406Z,79.10
2018-02-18T00:57:05.010Z,78.90
2018-02-18T00:59:34.560Z,78.80
2018-02-18T01:02:03.394Z,78.90
2018-02-18T01:04:32.815Z,79.40
2018-02-18T01:07:02.226Z,79.80
2018-02-18T01:09:31.054Z,78.70
2018-02-18T01:11:59.486Z,79.20
2018-02-18T01:14:29.319Z,79.40
2018-02-18T01:16:58.960Z,78.60
2018-02-18T01:19:27.319Z,78.60
2018-02-18T01:21:55.740Z,78.30
2018-02-18T01:24:24.271Z,78.40
2018-02-18T01:26:53.069Z,78.90
2018-02-18T01:29:22.403Z,77.60
2018-02-18T01:31:50.902Z,77.60
2018-02-18T01:34:19.213Z,77.40
2018-02-18T01:36:47.507Z,77.60
2018-02-18T01:39:15.834Z,77.60
2018-02-18T01:41:44.126Z,77.30
2018-02-18T01:44:12.447Z,77.30
2018-02-18T01:46:41.574Z,76.40
2018-02-18T01:49:10.943Z,76.00
2018-02-18T01:51:40.270Z,77.00
2018-02-18T01:54:08.889Z,76.90
2018-02-18T01:56:37.518Z,76.60
2018-02-18T01:59:07.027Z,77.90
2018-02-18T02:01:36.151Z,77.90
2018-02-18T02:04:04.935Z,78.90
2018-02-18T02:06:34.163Z,79.20
2018-02-18T02:09:03.102Z,78.60
2018-02-18T02:11:31.648Z,78.10
2018-02-18T02:14:01.553Z,76.40
2018-02-18T02:16:30.467Z,76.40
2018-02-18T02:18:58.989Z,75.30
2018-02-18T02:21:27.947Z,75.70
2018-02-18T02:23:56.411Z,77.20
2018-02-18T02:26:24.735Z,77.50
2018-02-18T02:28:54.225Z,75.60
2018-02-18T02:31:23.992Z,77.20
2018-02-18T02:33:52.999Z,77.20
2018-02-18T02:36:21.812Z,77.30
2018-02-18T02:38:50.974Z,78.30
2018-02-18T02:41:19.473Z,78.20
2018-02-18T02:43:48.564Z,78.40
2018-02-18T02:46:16.848Z,78.30
2018-02-18T02:48:45.166Z,78.10
2018-02-18T02:51:13.448Z,78.10
2018-02-18T02:53:41.775Z,78.40
2018-02-18T02:56:10.163Z,77.00
2018-02-18T02:58:38.717Z,77.40
2018-02-18T03:01:08.003Z,79.10
2018-02-18T03:03:36.439Z,79.10
2018-02-18T03:06:05.139Z,78.60
2018-02-18T03:08:33.734Z,79.10
2018-02-18T03:11:02.938Z,77.10
2018-02-18T03:13:32.677Z,77.10
2018-02-18T03:16:01.499Z,77.10
2018-02-18T03:18:31.531Z,78.50
2018-02-18T03:21:00.781Z,78.50
2018-02-18T03:23:32.084Z,80.00
2018-02-18T03:26:00.833Z,80.00
2018-02-18T03:28:29.555Z,79.40
2018-02-18T03:30:58.123Z,78.70
2018-02-18T03:33:26.463Z,79.40
2018-02-18T03:35:55.032Z,78.80
2018-02-18T03:38:24.405Z,79.60
2018-02-18T03:40:53.006Z,79.60
2018-02-18T03:43:22.590Z,79.10
2018-02-18T03:45:51.031Z,79.00
2018-02-18T03:48:19.463Z,79.30
2018-02-18T03:50:47.844Z,78.80
2018-02-18T03:53:16.156Z,77.20
2018-02-18T03:55:44.447Z,78.10
2018-02-18T03:58:12.768Z,78.50
2018-02-18T04:00:41.084Z,78.50
2018-02-18T04:03:09.404Z,79.00
2018-02-18T04:05:38.511Z,79.70
2018-02-18T04:08:08.327Z,79.20
2018-02-18T04:10:37.518Z,79.10
2018-02-18T04:13:06.571Z,77.80
2018-02-18T04:15:35.675Z,78.00
2018-02-18T04:18:04.740Z,77.30
2018-02-18T04:20:33.291Z,77.40
2018-02-18T04:23:03.592Z,78.70
2018-02-18T04:25:35.121Z,79.10
2018-02-18T04:28:03.851Z,79.10
2018-02-18T04:30:33.963Z,78.00
2018-02-18T04:33:03.451Z,78.90
2018-02-18T04:35:32.036Z,78.90
2018-02-18T04:38:01.013Z,79.30
2018-02-18T04:40:30.511Z,79.80
2018-02-18T04:42:59.797Z,79.10
2018-02-18T04:45:29.275Z,79.60
2018-02-18T04:47:57.591Z,79.60
2018-02-18T04:50:25.883Z,79.90
2018-02-18T04:52:55.083Z,80.20
2018-02-18T04:55:23.759Z,80.00
2018-02-18T04:57:52.551Z,79.50
2018-02-18T05:00:21.797Z,80.30
2018-02-18T05:02:51.063Z,80.20
2018-02-18T05:05:19.483Z,80.10
2018-02-18T05:07:48.152Z,79.90
2018-02-18T05:10:16.444Z,80.10
2018-02-18T05:12:44.742Z,80.50
2018-02-18T05:15:13.076Z,80.50
2018-02-18T05:17:42.478Z,81.20
2018-02-18T05:20:10.771Z,81.20
2018-02-18T05:22:39.235Z,81.10
2018-02-18T05:25:08.188Z,81.20
2018-02-18T05:27:36.598Z,80.90
2018-02-18T05:30:05.779Z,80.10
2018-02-18T05:32:34.642Z,80.00
2018-02-18T05:35:04.443Z,81.00
2018-02-18T05:37:34.102Z,80.90
2018-02-18T05:40:03.171Z,80.70
2018-02-18T05:42:31.986Z,80.60
2018-02-18T05:45:02.527Z,80.50
2018-02-18T05:47:32.008Z,80.50
2018-02-18T05:50:01.106Z,80.70
2018-02-18T05:52:32.161Z,80.60
2018-02-18T05:55:01.635Z,79.80
2018-02-18T05:57:30.763Z,79.80
2018-02-18T05:59:59.207Z,80.10
2018-02-18T06:02:27.626Z,80.70
2018-02-18T06:04:55.950Z,81.40
2018-02-18T06:07:24.575Z,81.80
2018-02-18T06:09:53.320Z,81.90
2018-02-18T06:12:21.687Z,81.90
2018-02-18T06:14:50.045Z,81.90
2018-02-18T06:17:19.135Z,81.80
2018-02-18T06:19:47.432Z,81.70
2018-02-18T06:22:15.835Z,80.60
2018-02-18T06:24:44.166Z,81.00
2018-02-18T06:27:12.461Z,81.90
2018-02-18T06:29:40.791Z,81.10
2018-02-18T06:32:09.895Z,79.70
2018-02-18T06:34:38.371Z,79.60
2018-02-18T06:37:07.242Z,80.40
2018-02-18T06:39:36.186Z,80.50
2018-02-18T06:42:05.612Z,80.70
2018-02-18T06:44:35.314Z,80.80
2018-02-18T06:47:04.015Z,80.80
2018-02-18T06:49:33.814Z,80.60
2018-02-18T06:52:04.038Z,80.90
2018-02-18T06:54:33.180Z,80.90
2018-02-18T06:57:02.700Z,80.80
2018-02-18T06:59:33.215Z,80.90
2018-02-18T07:02:02.639Z,81.50
2018-02-18T07:04:31.897Z,81.50
2018-02-18T07:07:01.687Z,81.80
2018-02-18T07:09:32.096Z,81.90
2018-02-18T07:12:02.327Z,81.50
2018-02-18T07:14:30.921Z,81.50
2018-02-18T07:17:00.078Z,81.30
2018-02-18T07:19:28.481Z,80.80
2018-02-18T07:21:56.840Z,81.20
2018-02-18T07:24:25.588Z,80.90
2018-02-18T07:26:55.011Z,80.80
2018-02-18T07:29:24.758Z,81.50
2018-02-18T07:31:54.088Z,80.50
2018-02-18T07:34:22.790Z,80.50
2018-02-18T07:36:51.190Z,81.00
2018-02-18T07:39:19.615Z,80.70
2018-02-18T07:41:48.018Z,80.00
2018-02-18T07:44:16.343Z,79.80
2018-02-18T07:46:45.398Z,80.00
2018-02-18T07:49:13.682Z,80.00
2018-02-18T07:51:42.766Z,80.50
2018-02-18T07:54:11.064Z,80.50
2018-02-18T07:56:39.854Z,80.20
2018-02-18T07:59:08.893Z,79.70
2018-02-18T08:01:37.516Z,80.10
2018-02-18T08:04:06.823Z,80.80
2018-02-18T08:06:35.333Z,80.10
2018-02-18T08:09:05.934Z,80.40
2018-02-18T08:11:35.199Z,79.80
2018-02-18T08:14:04.540Z,79.50
2018-02-18T08:16:33.960Z,80.10
2018-02-18T08:19:03.055Z,80.00
2018-02-18T08:21:31.730Z,80.30
2018-02-18T08:24:02.370Z,79.90
2018-02-18T08:26:32.592Z,78.90
2018-02-18T08:29:02.226Z,78.60
2018-02-18T08:31:30.905Z,78.50
2018-02-18T08:34:01.539Z,77.90
2018-02-18T08:36:33.568Z,77.70
2018-02-18T08:39:03.379Z,77.60
2018-02-18T08:41:32.152Z,76.30
2018-02-18T08:44:00.852Z,76.50
2018-02-18T08:46:30.223Z,76.80
2018-02-18T08:49:01.279Z,77.30
2018-02-18T08:51:29.930Z,77.20
2018-02-18T08:53:59.918Z,76.40
2018-02-18T08:56:28.605Z,76.30
2018-02-18T08:58:57.314Z,76.30
2018-02-18T09:01:25.639Z,76.90
2018-02-18T09:03:54.076Z,76.50
2018-02-18T09:06:23.203Z,75.20
2018-02-18T09:08:51.490Z,75.20
2018-02-18T09:11:21.100Z,76.00
2018-02-18T09:13:50.963Z,76.00
2018-02-18T09:16:19.521Z,76.50
2018-02-18T09:18:50.079Z,75.40
2018-02-18T09:21:18.575Z,74.80
2018-02-18T09:23:46.914Z,74.10
2018-02-18T09:26:15.198Z,74.50
2018-02-18T09:28:43.503Z,75.10
2018-02-18T09:31:11.907Z,75.00
2018-02-18T09:33:40.199Z,74.50
2018-02-18T09:36:08.696Z,73.80
2018-02-18T09:38:37.014Z,73.50
2018-02-18T09:41:05.695Z,72.40
2018-02-18T09:43:34.111Z,72.30
2018-02-18T09:46:02.831Z,72.40
2018-02-18T09:48:31.419Z,72.10
2018-02-18T09:50:59.830Z,72.70
2018-02-18T09:53:28.955Z,72.60
2018-02-18T09:55:57.367Z,72.60
2018-02-18T09:58:25.675Z,71.60
2018-02-18T10:00:54.135Z,71.90
2018-02-18T10:03:22.736Z,72.30
2018-02-18T10:05:51.207Z,71.90
2018-02-18T10:08:19.606Z,70.60
2018-02-18T10:10:48.919Z,70.30
2018-02-18T10:13:17.239Z,70.40
2018-02-18T10:15:45.574Z,70.60
2018-02-18T10:18:14.654Z,70.70
2018-02-18T10:20:42.974Z,70.70
2018-02-18T10:23:11.254Z,69.90
2018-02-18T10:25:39.579Z,69.70
2018-02-18T10:28:08.071Z,68.70
2018-02-18T10:30:36.571Z,67.00
2018-02-18T10:33:04.987Z,67.50
2018-02-18T10:35:33.747Z,68.30
2018-02-18T10:38:02.406Z,66.20
2018-02-18T10:40:31.014Z,66.80
2018-02-18T10:42:59.402Z,65.20
2018-02-18T10:45:29.211Z,65.20
2018-02-18T10:47:57.899Z,64.20
2018-02-18T10:50:26.367Z,64.10
2018-02-18T10:52:54.646Z,64.30
2018-02-18T10:55:22.952Z,64.00
2018-02-18T10:57:51.461Z,63.20
2018-02-18T11:00:19.800Z,63.40
2018-02-18T11:02:48.859Z,64.80
2018-02-18T11:05:17.195Z,64.80
2018-02-18T11:07:45.511Z,64.30
2018-02-18T11:10:13.823Z,63.60
2018-02-18T11:12:42.142Z,63.50
2018-02-18T11:15:11.234Z,60.10
2018-02-18T11:17:39.595Z,60.10
2018-02-18T11:20:07.860Z,60.30
2018-02-18T11:22:37.230Z,62.20
2018-02-18T11:25:05.606Z,61.70
2018-02-18T11:27:34.880Z,60.80
2018-02-18T11:30:04.206Z,59.70
2018-02-18T11:32:32.814Z,59.70
2018-02-18T11:35:01.220Z,59.40
2018-02-18T11:37:30.862Z,58.10
2018-02-18T11:40:00.020Z,57.40
2018-02-18T11:42:28.363Z,57.40
2018-02-18T11:44:57.455Z,57.80
2018-02-18T11:47:25.735Z,57.70
2018-02-18T11:49:54.819Z,57.90
2018-02-18T11:52:24.343Z,57.90
2018-02-18T11:54:52.666Z,56.70
2018-02-18T11:57:21.039Z,58.50
2018-02-18T11:59:49.811Z,57.50
2018-02-18T12:02:18.940Z,56.90
2018-02-18T12:04:47.231Z,56.80
2018-02-18T12:07:16.312Z,56.10
2018-02-18T12:09:44.622Z,56.10
2018-02-18T12:12:12.899Z,57.40
2018-02-18T12:14:41.211Z,56.70
2018-02-18T12:17:09.528Z,57.00
2018-02-18T12:19:37.808Z,55.40
2018-02-18T12:22:06.195Z,55.50
2018-02-18T12:24:34.754Z,54.30
2018-02-18T12:27:03.330Z,55.40
2018-02-18T12:29:31.863Z,55.60
2018-02-18T12:32:00.416Z,55.20
2018-02-18T12:34:29.067Z,56.30
2018-02-18T12:36:57.419Z,57.00
2018-02-18T12:39:25.807Z,55.10
2018-02-18T12:41:54.896Z,56.40
2018-02-18T12:44:23.186Z,56.40
2018-02-18T12:46:51.592Z,55.30
2018-02-18T12:49:20.006Z,57.60
2018-02-18T12:51:49.155Z,58.00
2018-02-18T12:54:17.497Z,57.80
2018-02-18T12:56:45.916Z,56.50
2018-02-18T12:59:14.212Z,56.50
2018-02-18T13:01:42.523Z,56.80
2018-02-18T13:04:11.139Z,54.70
2018-02-18T13:06:39.531Z,52.10
2018-02-18T13:09:07.864Z,51.80
2018-02-18T13:11:36.267Z,51.40
2018-02-18T13:14:04.746Z,52.80
2018-02-18T13:16:34.063Z,52.80
2018-02-18T13:19:02.439Z,52.70
2018-02-18T13:21:30.875Z,52.40
2018-02-18T13:23:59.300Z,53.20
2018-02-18T13:26:27.695Z,54.10
2018-02-18T13:28:56.007Z,56.10
2018-02-18T13:31:24.319Z,55.80
2018-02-18T13:33:52.594Z,56.00
2018-02-18T13:36:21.223Z,55.80
2018-02-18T13:38:49.618Z,55.40
2018-02-18T13:41:18.144Z,55.50
2018-02-18T13:43:46.467Z,54.40
2018-02-18T13:46:15.520Z,55.40
2018-02-18T13:48:43.831Z,55.30
2018-02-18T13:51:12.115Z,56.30
2018-02-18T13:53:40.436Z,56.60
2018-02-18T13:56:08.713Z,57.00
2018-02-18T13:58:37.146Z,55.90
2018-02-18T14:01:07.397Z,57.40
2018-02-18T14:03:35.799Z,57.40
2018-02-18T14:06:04.291Z,56.30
2018-02-18T14:08:32.786Z,57.40
2018-02-18T14:11:01.202Z,58.70
2018-02-18T14:13:29.559Z,58.10
2018-02-18T14:15:58.678Z,57.90
2018-02-18T14:18:27.027Z,57.80
2018-02-18T14:20:55.349Z,57.50
2018-02-18T14:23:23.635Z,57.70
2018-02-18T14:25:51.916Z,58.10
2018-02-18T14:28:20.665Z,57.50
2018-02-18T14:30:49.062Z,57.00
2018-02-18T14:33:17.340Z,58.40
2018-02-18T14:35:45.679Z,57.90
2018-02-18T14:38:13.999Z,58.30
2018-02-18T14:40:42.332Z,59.10
2018-02-18T14:43:23.272Z,57.90
2018-02-18T14:46:03.439Z,57.90
2018-02-18T14:48:43.448Z,59.20
2018-02-18T14:51:23.670Z,57.80
2018-02-18T14:54:04.710Z,58.60
2018-02-18T14:56:45.199Z,58.50
2018-02-18T14:59:13.510Z,59.20
2018-02-18T15:01:41.926Z,58.80
2018-02-18T15:04:10.246Z,58.50
2018-02-18T15:06:39.508Z,59.90
2018-02-18T15:09:07.830Z,59.40
2018-02-18T15:11:36.113Z,58.20
2018-02-18T15:14:05.235Z,56.80
2018-02-18T15:16:33.686Z,56.80
2018-02-18T15:19:02.080Z,58.00
2018-02-18T15:21:30.735Z,58.10
2018-02-18T15:23:59.335Z,58.70
2018-02-18T15:26:27.780Z,58.90
2018-02-18T15:28:56.424Z,60.70
2018-02-18T15:31:24.715Z,59.20
2018-02-18T15:33:52.998Z,60.20
2018-02-18T15:36:21.319Z,60.80
2018-02-18T15:38:49.771Z,59.70
2018-02-18T15:41:18.119Z,59.70
2018-02-18T15:43:46.415Z,58.80
2018-02-18T15:46:15.003Z,59.10
2018-02-18T15:48:43.283Z,59.10
2018-02-18T15:51:12.331Z,58.50
2018-02-18T15:53:40.655Z,58.50
2018-02-18T15:56:08.934Z,57.00
2018-02-18T15:58:37.258Z,57.20
2018-02-18T16:01:05.842Z,57.80
2018-02-18T16:03:34.410Z,57.90
2018-02-18T16:06:04.123Z,56.60
2018-02-18T16:08:33.643Z,56.90
2018-02-18T16:11:02.804Z,57.40
2018-02-18T16:13:31.419Z,56.90
2018-02-18T16:16:01.096Z,57.40
2018-02-18T16:18:29.475Z,57.30
2018-02-18T16:20:57.818Z,57.00
2018-02-18T16:23:26.314Z,57.80
2018-02-18T16:25:54.930Z,58.00
2018-02-18T16:28:23.218Z,57.10
2018-02-18T16:30:51.536Z,55.80
2018-02-18T16:33:19.931Z,55.80
2018-02-18T16:35:48.520Z,55.40
2018-02-18T16:38:16.874Z,56.70
2018-02-18T16:40:45.367Z,56.30
2018-02-18T16:43:13.704Z,55.70
2018-02-18T16:45:41.943Z,56.90
2018-02-18T16:48:10.582Z,58.10
2018-02-18T16:50:38.854Z,58.40
2018-02-18T16:53:07.134Z,59.90
2018-02-18T16:55:36.358Z,56.90
2018-02-18T16:58:04.754Z,56.80
2018-02-18T17:00:33.108Z,57.20
2018-02-18T17:03:01.628Z,57.20
2018-02-18T17:05:31.125Z,58.50
2018-02-18T17:07:59.666Z,57.90
2018-02-18T17:10:28.708Z,60.10
2018-02-18T17:12:57.038Z,60.10
2018-02-18T17:15:26.106Z,61.80
2018-02-18T17:17:54.382Z,61.80
2018-02-18T17:20:22.862Z,62.90
2018-02-18T17:22:51.186Z,62.20
2018-02-18T17:25:19.610Z,62.50
2018-02-18T17:27:48.824Z,60.40
2018-02-18T17:30:17.114Z,60.40
2018-02-18T17:32:45.431Z,62.10
2018-02-18T17:35:13.748Z,62.90
2018-02-18T17:37:42.036Z,62.00
2018-02-18T17:40:10.450Z,61.40
2018-02-18T17:42:38.760Z,60.50
2018-02-18T17:45:07.463Z,60.60
2018-02-18T17:47:35.964Z,59.70
2018-02-18T17:50:04.526Z,62.80
2018-02-18T17:52:33.147Z,65.30
2018-02-18T17:55:01.583Z,64.50
2018-02-18T17:57:30.062Z,63.60
2018-02-18T17:59:58.593Z,65.40
2018-02-18T18:02:26.947Z,66.10
2018-02-18T18:04:56.026Z,62.40
2018-02-18T18:07:24.343Z,62.40
2018-02-18T18:09:52.732Z,64.60
2018-02-18T18:12:21.023Z,66.60
2018-02-18T18:14:49.590Z,67.10
2018-02-18T18:17:17.914Z,68.00
2018-02-18T18:19:46.247Z,65.80
2018-02-18T18:22:14.559Z,67.10
2018-02-18T18:24:42.871Z,67.00
2018-02-18T18:27:11.191Z,66.30
2018-02-18T18:29:40.260Z,63.90
2018-02-18T18:32:08.541Z,63.80
2018-02-18T18:34:36.982Z,64.70
2018-02-18T18:37:05.678Z,63.40
2018-02-18T18:39:34.288Z,64.50
2018-02-18T18:42:02.922Z,64.70
2018-02-18T18:44:32.131Z,64.70
2018-02-18T18:47:00.523Z,64.70
2018-02-18T18:49:28.896Z,64.80
2018-02-18T18:51:57.235Z,65.90
2018-02-18T18:54:25.515Z,65.60
2018-02-18T18:56:53.831Z,65.00
2018-02-18T18:59:22.110Z,65.70
2018-02-18T19:01:50.845Z,66.90
2018-02-18T19:04:19.219Z,67.80
2018-02-18T19:06:47.564Z,67.10
2018-02-18T19:09:16.689Z,65.80
2018-02-18T19:11:44.968Z,65.80
2018-02-18T19:14:13.282Z,66.50
2018-02-18T19:16:41.710Z,66.30
2018-02-18T19:19:09.998Z,64.30
2018-02-18T19:21:38.292Z,63.30
2018-02-18T19:24:06.690Z,64.40
2018-02-18T19:26:34.992Z,63.70
2018-02-18T19:29:03.693Z,64.50
2018-02-18T19:31:32.210Z,64.30
2018-02-18T19:34:00.823Z,63.90
2018-02-18T19:36:29.222Z,64.10
2018-02-18T19:38:57.829Z,65.10
2018-02-18T19:41:26.127Z,63.70
2018-02-18T19:43:54.434Z,62.60
2018-02-18T19:46:22.727Z,63.70
2018-02-18T19:48:51.052Z,64.00
2018-02-18T19:51:19.894Z,63.80
2018-02-18T19:53:48.270Z,63.80
2018-02-18T19:56:16.867Z,63.80
2018-02-18T19:58:45.150Z,63.60
2018-02-18T20:01:13.478Z,64.30
2018-02-18T20:03:41.807Z,64.20
2018-02-18T20:06:10.884Z,65.20
2018-02-18T20:08:39.163Z,64.60
2018-02-18T20:11:07.491Z,64.80
2018-02-18T20:13:36.115Z,65.20
2018-02-18T20:16:04.474Z,64.20
2018-02-18T20:18:32.975Z,64.80
2018-02-18T20:21:02.304Z,64.20
2018-02-18T20:23:30.678Z,64.20
2018-02-18T20:25:59.047Z,64.70
2018-02-18T20:28:29.505Z,64.70
2018-02-18T20:30:57.801Z,64.60
2018-02-18T20:33:26.135Z,64.90
2018-02-18T20:35:54.411Z,64.30
2018-02-18T20:38:22.699Z,63.10
2018-02-18T20:40:51.027Z,63.30
2018-02-18T20:43:19.423Z,63.30
2018-02-18T20:45:48.102Z,63.80
2018-02-18T20:48:16.439Z,63.60
2018-02-18T20:50:44.726Z,63.70
2018-02-18T20:53:13.042Z,64.30
2018-02-18T20:55:41.322Z,65.40
2018-02-18T20:58:09.846Z,65.50
2018-02-18T21:00:38.155Z,65.10
2018-02-18T21:03:06.444Z,66.00
2018-02-18T21:05:34.805Z,64.90
2018-02-18T21:08:04.018Z,66.00
2018-02-18T21:10:32.620Z,66.00
2018-02-18T21:13:01.855Z,65.20
2018-02-18T21:15:30.520Z,65.20
2018-02-18T21:17:58.946Z,65.40
2018-02-18T21:20:28.478Z,65.50
2018-02-18T21:22:56.859Z,65.30
2018-02-18T21:25:25.144Z,65.00
2018-02-18T21:27:53.466Z,65.40
2018-02-18T21:30:21.907Z,65.90
2018-02-18T21:32:50.371Z,65.90
2018-02-18T21:35:18.964Z,65.60
2018-02-18T21:37:47.259Z,65.80
2018-02-18T21:40:15.907Z,65.80
2018-02-18T21:42:44.295Z,65.80
2018-02-18T21:45:12.579Z,65.40
2018-02-18T21:47:40.906Z,65.50
2018-02-18T21:50:09.207Z,65.30
2018-02-18T21:52:37.495Z,64.70
2018-02-18T21:55:05.815Z,65.20
2018-02-18T21:57:34.158Z,65.10
2018-02-18T22:00:02.802Z,65.30
2018-02-18T22:02:31.380Z,65.60
2018-02-18T22:04:59.851Z,64.70
2018-02-18T22:07:28.272Z,64.70
2018-02-18T22:09:57.315Z,64.20
2018-02-18T22:12:25.598Z,64.10
2018-02-18T22:14:53.925Z,63.60
2018-02-18T22:17:22.240Z,63.50
2018-02-18T22:19:50.611Z,63.50
2018-02-18T22:22:18.971Z,63.90
2018-02-18T22:24:47.280Z,63.90
2018-02-18T22:27:15.688Z,64.60
2018-02-18T22:29:43.999Z,64.40
2018-02-18T22:32:12.279Z,64.30
2018-02-18T22:34:40.595Z,64.90
2018-02-18T22:37:08.912Z,65.60
2018-02-18T22:39:37.958Z,65.90
2018-02-18T22:42:06.350Z,65.80
2018-02-18T22:44:34.704Z,65.00
2018-02-18T22:47:03.330Z,65.70
2018-02-18T22:49:31.693Z,65.40
2018-02-18T22:52:00.171Z,65.70
2018-02-18T22:54:28.613Z,65.40
2018-02-18T22:56:56.960Z,64.70
2018-02-18T22:59:26.350Z,64.30
2018-02-18T23:01:54.635Z,64.30
2018-02-18T23:04:22.914Z,64.00
2018-02-18T23:06:51.254Z,64.30
2018-02-18T23:09:19.652Z,64.00
2018-02-18T23:11:47.986Z,63.80
2018-02-18T23:14:17.807Z,64.60
2018-02-18T23:16:46.091Z,64.60
2018-02-18T23:19:14.511Z,63.50
2018-02-18T23:21:42.806Z,62.90
2018-02-18T23:24:11.208Z,63.10
2018-02-18T23:26:40.614Z,63.20
2018-02-18T23:29:11.116Z,64.20
2018-02-18T23:31:40.327Z,64.20
2018-02-18T23:34:12.351Z,63.50
2018-02-18T23:36:40.962Z,64.30
2018-02-18T23:39:10.039Z,63.30
2018-02-18T23:41:38.678Z,63.30
2018-02-18T23:44:07.460Z,63.60
2018-02-18T23:46:35.954Z,64.30
2018-02-18T23:49:05.099Z,64.80
2018-02-18T23:51:34.458Z,64.90
2018-02-18T23:54:03.368Z,64.80
2018-02-18T23:56:31.827Z,64.50
2018-02-18T23:59:00.309Z,64.50
